Main page
METAR-TAF:

METAR-TAF

Airports :

Foz do Iguaçu, Paraná, Brazil

Foz do Iguaçu International Airport

latitude: 25-31S, longitude: 054-35W, elevation: 180 m

Current weather observation

The report was made 1 hour and 4 minutes ago, at 22:00 UTC
Wind 9 kt from the East
Temperature 24°C
Humidity 57%
Pressure 1013 hPa
Visibility 10 km or more
no clouds below 1500 m and no cumulonimbus

METAR: SBFI 232200Z 10009KT CAVOK 24/15 Q1013

Time: 20:04 (23:04 UTC)

Forecast

The report was made 7 hours and 34 minutes ago, at 15:30 UTC
Forecast valid from 23 at 18 UTC to 24 at 18 UTC
Wind 8 kt from the East
Visibility 10 km or more
no clouds below 1500 m and no cumulonimbus
Becoming
from 23 at 22 UTC to 23 at 24 UTC
Wind 5 kt from the East

TAF: SBFI 231530Z 2318/2418 08008KT CAVOK TX28/2318Z TN16/2409Z BECMG 2322/2324 08005KT RMK PEB

Weather observations and forecasts of more than 4000 airports (METAR and TAF reports).

The available stations are represented by yellow and red dots on the map.

Hover mouse over dot to see the name of the station.

Then click to see weather observations and forecasts.

To change the map : click on the green buttons with a black cross to zoom in, on the green button with a dash to zoom out, or on the green arrows for adjacent maps.


METAR-TAF: